Shinrock, Ohio
Current Conditions -  °F | °C
As of 2:13 AM on Thursday 18 Dec 2014 (Local Time) from KPCW Reporting Station
Overcast Overcast  
Wind Chill: 20°   Ceiling: 4000
Heat Index: 30°   Visibility: 10mi
Dew Point: 23°   Wind: 13mph
Humidity: 75%   Direction: 260°W
Pressure: 30.19"   Gusts: NA
Location:  41.3748°N, 82.5554°W
Report Text: KPCW 180713Z AUTO 26011KT 10SM SCT031 OVC040 M01/M05 A3019 RMK AO2 $
Loading
Personal Weather Stations






























Interactive Weather Map New forecast layout! Learn more

10-Day Weather Forecast

Advertisements
Track Severe Weather on mobile